sensor_id;sensor_type;location;lat;lon;timestamp;P1;durP1;ratioP1;P2;durP2;ratioP2
31652;SDS011;18261;53.648;9.910;2022-08-06T00:00:30;9.18;;;1.60;;
31652;SDS011;18261;53.648;9.910;2022-08-06T00:02:56;26.10;;;7.60;;
31652;SDS011;18261;53.648;9.910;2022-08-06T00:05:22;15.40;;;5.30;;
31652;SDS011;18261;53.648;9.910;2022-08-06T00:07:48;7.25;;;1.73;;
31652;SDS011;18261;53.648;9.910;2022-08-06T00:10:16;8.63;;;2.00;;
31652;SDS011;18261;53.648;9.910;2022-08-06T00:12:42;9.45;;;2.10;;
31652;SDS011;18261;53.648;9.910;2022-08-06T00:15:08;4.95;;;1.45;;
31652;SDS011;18261;53.648;9.910;2022-08-06T00:17:34;8.93;;;2.40;;
31652;SDS011;18261;53.648;9.910;2022-08-06T00:20:03;8.48;;;2.53;;
31652;SDS011;18261;53.648;9.910;2022-08-06T00:22:29;12.18;;;3.10;;
31652;SDS011;18261;53.648;9.910;2022-08-06T00:24:56;9.48;;;2.88;;
31652;SDS011;18261;53.648;9.910;2022-08-06T00:27:22;18.17;;;3.28;;
31652;SDS011;18261;53.648;9.910;2022-08-06T00:29:48;6.47;;;1.70;;
31652;SDS011;18261;53.648;9.910;2022-08-06T00:32:14;12.30;;;1.90;;
31652;SDS011;18261;53.648;9.910;2022-08-06T00:34:40;5.63;;;1.33;;
31652;SDS011;18261;53.648;9.910;2022-08-06T00:37:06;6.68;;;1.65;;
31652;SDS011;18261;53.648;9.910;2022-08-06T00:39:32;13.82;;;2.88;;
31652;SDS011;18261;53.648;9.910;2022-08-06T00:41:58;11.23;;;2.70;;
31652;SDS011;18261;53.648;9.910;2022-08-06T00:44:24;7.78;;;2.40;;
31652;SDS011;18261;53.648;9.910;2022-08-06T00:46:50;8.93;;;1.80;;
31652;SDS011;18261;53.648;9.910;2022-08-06T00:49:17;8.38;;;1.50;;
31652;SDS011;18261;53.648;9.910;2022-08-06T00:51:43;7.72;;;2.28;;
31652;SDS011;18261;53.648;9.910;2022-08-06T00:54:09;16.58;;;4.40;;
31652;SDS011;18261;53.648;9.910;2022-08-06T00:56:35;15.82;;;4.97;;
31652;SDS011;18261;53.648;9.910;2022-08-06T00:59:01;21.92;;;5.65;;
31652;SDS011;18261;53.648;9.910;2022-08-06T01:01:27;25.10;;;6.35;;
31652;SDS011;18261;53.648;9.910;2022-08-06T01:03:53;18.80;;;4.50;;
31652;SDS011;18261;53.648;9.910;2022-08-06T01:06:19;11.77;;;3.28;;
31652;SDS011;18261;53.648;9.910;2022-08-06T01:08:46;9.48;;;2.95;;
31652;SDS011;18261;53.648;9.910;2022-08-06T01:11:11;11.70;;;2.10;;
31652;SDS011;18261;53.648;9.910;2022-08-06T01:13:37;24.60;;;7.93;;
31652;SDS011;18261;53.648;9.910;2022-08-06T01:18:55;18.00;;;3.55;;
31652;SDS011;18261;53.648;9.910;2022-08-06T01:24:23;21.33;;;6.43;;
31652;SDS011;18261;53.648;9.910;2022-08-06T01:29:22;9.20;;;3.05;;
31652;SDS011;18261;53.648;9.910;2022-08-06T01:31:55;17.65;;;5.85;;
31652;SDS011;18261;53.648;9.910;2022-08-06T01:34:40;28.42;;;8.18;;
31652;SDS011;18261;53.648;9.910;2022-08-06T01:37:11;30.70;;;9.02;;
31652;SDS011;18261;53.648;9.910;2022-08-06T01:39:39;13.57;;;4.38;;
31652;SDS011;18261;53.648;9.910;2022-08-06T01:42:06;11.65;;;3.08;;
31652;SDS011;18261;53.648;9.910;2022-08-06T01:44:34;19.70;;;5.30;;
31652;SDS011;18261;53.648;9.910;2022-08-06T01:47:04;20.08;;;5.22;;
31652;SDS011;18261;53.648;9.910;2022-08-06T01:49:31;21.80;;;6.70;;
31652;SDS011;18261;53.648;9.910;2022-08-06T01:51:59;30.85;;;10.40;;
31652;SDS011;18261;53.648;9.910;2022-08-06T01:54:26;34.72;;;10.10;;
31652;SDS011;18261;53.648;9.910;2022-08-06T01:56:53;19.55;;;6.13;;
31652;SDS011;18261;53.648;9.910;2022-08-06T01:59:21;20.80;;;5.05;;
31652;SDS011;18261;53.648;9.910;2022-08-06T02:01:49;17.15;;;5.20;;
31652;SDS011;18261;53.648;9.910;2022-08-06T02:04:16;19.25;;;5.50;;
31652;SDS011;18261;53.648;9.910;2022-08-06T02:06:43;26.00;;;7.10;;
31652;SDS011;18261;53.648;9.910;2022-08-06T02:09:11;31.30;;;8.35;;
31652;SDS011;18261;53.648;9.910;2022-08-06T02:11:38;28.00;;;7.78;;
31652;SDS011;18261;53.648;9.910;2022-08-06T02:14:05;15.45;;;5.38;;
31652;SDS011;18261;53.648;9.910;2022-08-06T02:16:34;16.95;;;5.00;;
31652;SDS011;18261;53.648;9.910;2022-08-06T02:19:01;8.60;;;2.83;;
31652;SDS011;18261;53.648;9.910;2022-08-06T02:21:28;9.05;;;2.30;;
31652;SDS011;18261;53.648;9.910;2022-08-06T02:23:55;7.07;;;1.80;;
31652;SDS011;18261;53.648;9.910;2022-08-06T02:26:21;11.80;;;2.45;;
31652;SDS011;18261;53.648;9.910;2022-08-06T02:28:49;15.40;;;5.30;;
31652;SDS011;18261;53.648;9.910;2022-08-06T02:31:16;28.13;;;8.27;;
31652;SDS011;18261;53.648;9.910;2022-08-06T02:33:42;24.48;;;7.68;;
31652;SDS011;18261;53.648;9.910;2022-08-06T02:36:18;18.08;;;4.15;;
31652;SDS011;18261;53.648;9.910;2022-08-06T02:38:49;14.25;;;4.95;;
31652;SDS011;18261;53.648;9.910;2022-08-06T02:41:21;18.23;;;5.38;;
31652;SDS011;18261;53.648;9.910;2022-08-06T02:43:50;17.42;;;5.00;;
31652;SDS011;18261;53.648;9.910;2022-08-06T02:46:27;19.75;;;5.80;;
31652;SDS011;18261;53.648;9.910;2022-08-06T02:48:58;22.92;;;5.65;;
31652;SDS011;18261;53.648;9.910;2022-08-06T02:51:27;20.92;;;5.70;;
31652;SDS011;18261;53.648;9.910;2022-08-06T02:53:56;7.78;;;2.25;;
31652;SDS011;18261;53.648;9.910;2022-08-06T02:56:23;6.85;;;1.67;;
31652;SDS011;18261;53.648;9.910;2022-08-06T02:58:51;26.85;;;6.18;;
31652;SDS011;18261;53.648;9.910;2022-08-06T03:01:18;12.98;;;2.85;;
31652;SDS011;18261;53.648;9.910;2022-08-06T03:03:46;9.43;;;3.08;;
31652;SDS011;18261;53.648;9.910;2022-08-06T03:06:14;49.20;;;14.75;;
31652;SDS011;18261;53.648;9.910;2022-08-06T03:08:41;52.92;;;14.93;;
31652;SDS011;18261;53.648;9.910;2022-08-06T03:11:07;32.97;;;10.88;;
31652;SDS011;18261;53.648;9.910;2022-08-06T03:13:34;20.05;;;6.15;;
31652;SDS011;18261;53.648;9.910;2022-08-06T03:16:00;14.15;;;4.43;;
31652;SDS011;18261;53.648;9.910;2022-08-06T03:18:27;67.00;;;21.60;;
31652;SDS011;18261;53.648;9.910;2022-08-06T03:20:54;30.42;;;10.73;;
31652;SDS011;18261;53.648;9.910;2022-08-06T03:23:20;26.98;;;7.85;;
31652;SDS011;18261;53.648;9.910;2022-08-06T03:25:47;33.63;;;8.45;;
31652;SDS011;18261;53.648;9.910;2022-08-06T03:28:14;31.52;;;10.48;;
31652;SDS011;18261;53.648;9.910;2022-08-06T03:30:40;23.90;;;6.43;;
31652;SDS011;18261;53.648;9.910;2022-08-06T03:33:10;21.98;;;6.40;;
31652;SDS011;18261;53.648;9.910;2022-08-06T03:35:37;15.93;;;5.70;;
31652;SDS011;18261;53.648;9.910;2022-08-06T03:38:05;23.13;;;6.07;;
31652;SDS011;18261;53.648;9.910;2022-08-06T03:40:32;32.00;;;10.00;;
31652;SDS011;18261;53.648;9.910;2022-08-06T03:42:59;31.27;;;10.05;;
31652;SDS011;18261;53.648;9.910;2022-08-06T03:45:25;21.80;;;7.65;;
31652;SDS011;18261;53.648;9.910;2022-08-06T03:47:52;18.42;;;5.35;;
31652;SDS011;18261;53.648;9.910;2022-08-06T03:50:20;11.52;;;3.90;;
31652;SDS011;18261;53.648;9.910;2022-08-06T03:55:30;11.35;;;4.05;;
31652;SDS011;18261;53.648;9.910;2022-08-06T03:57:57;20.02;;;6.50;;
31652;SDS011;18261;53.648;9.910;2022-08-06T04:00:25;32.13;;;8.93;;
31652;SDS011;18261;53.648;9.910;2022-08-06T04:02:53;14.40;;;4.43;;
31652;SDS011;18261;53.648;9.910;2022-08-06T04:05:20;20.45;;;6.55;;
31652;SDS011;18261;53.648;9.910;2022-08-06T04:07:48;15.73;;;4.15;;
31652;SDS011;18261;53.648;9.910;2022-08-06T04:10:14;12.73;;;4.82;;
31652;SDS011;18261;53.648;9.910;2022-08-06T04:12:42;39.03;;;11.60;;
31652;SDS011;18261;53.648;9.910;2022-08-06T04:15:09;23.20;;;6.75;;
31652;SDS011;18261;53.648;9.910;2022-08-06T04:17:35;33.20;;;9.30;;
31652;SDS011;18261;53.648;9.910;2022-08-06T04:20:02;16.38;;;4.78;;
31652;SDS011;18261;53.648;9.910;2022-08-06T04:22:29;19.27;;;5.78;;
31652;SDS011;18261;53.648;9.910;2022-08-06T04:24:55;9.35;;;3.70;;
31652;SDS011;18261;53.648;9.910;2022-08-06T04:27:21;17.42;;;4.22;;
31652;SDS011;18261;53.648;9.910;2022-08-06T04:29:47;11.40;;;2.42;;
31652;SDS011;18261;53.648;9.910;2022-08-06T04:32:14;10.63;;;3.63;;
31652;SDS011;18261;53.648;9.910;2022-08-06T04:34:40;9.88;;;3.85;;
31652;SDS011;18261;53.648;9.910;2022-08-06T04:37:07;9.65;;;3.15;;
31652;SDS011;18261;53.648;9.910;2022-08-06T04:39:33;8.52;;;3.30;;
31652;SDS011;18261;53.648;9.910;2022-08-06T04:41:59;12.13;;;4.43;;
31652;SDS011;18261;53.648;9.910;2022-08-06T04:44:27;7.80;;;3.13;;
31652;SDS011;18261;53.648;9.910;2022-08-06T04:46:53;24.50;;;8.07;;
31652;SDS011;18261;53.648;9.910;2022-08-06T04:49:19;7.78;;;3.22;;
31652;SDS011;18261;53.648;9.910;2022-08-06T04:51:45;7.22;;;2.67;;
31652;SDS011;18261;53.648;9.910;2022-08-06T04:54:12;8.13;;;2.50;;
31652;SDS011;18261;53.648;9.910;2022-08-06T04:56:39;9.07;;;1.88;;
31652;SDS011;18261;53.648;9.910;2022-08-06T04:59:05;20.05;;;4.82;;
31652;SDS011;18261;53.648;9.910;2022-08-06T05:01:31;11.10;;;3.78;;
31652;SDS011;18261;53.648;9.910;2022-08-06T05:03:57;8.32;;;2.58;;
31652;SDS011;18261;53.648;9.910;2022-08-06T05:06:24;9.52;;;3.10;;
31652;SDS011;18261;53.648;9.910;2022-08-06T05:08:53;17.45;;;5.53;;
31652;SDS011;18261;53.648;9.910;2022-08-06T05:11:28;20.85;;;5.25;;
31652;SDS011;18261;53.648;9.910;2022-08-06T05:13:57;10.73;;;3.40;;
31652;SDS011;18261;53.648;9.910;2022-08-06T05:16:23;11.52;;;2.67;;
31652;SDS011;18261;53.648;9.910;2022-08-06T05:18:51;8.57;;;2.20;;
31652;SDS011;18261;53.648;9.910;2022-08-06T05:21:19;7.25;;;1.50;;
31652;SDS011;18261;53.648;9.910;2022-08-06T05:23:47;9.10;;;2.47;;
31652;SDS011;18261;53.648;9.910;2022-08-06T05:26:13;9.77;;;3.88;;
31652;SDS011;18261;53.648;9.910;2022-08-06T05:28:40;13.05;;;4.53;;
31652;SDS011;18261;53.648;9.910;2022-08-06T05:31:06;7.15;;;2.00;;
31652;SDS011;18261;53.648;9.910;2022-08-06T05:33:33;7.15;;;2.47;;
31652;SDS011;18261;53.648;9.910;2022-08-06T05:36:01;9.52;;;2.78;;
31652;SDS011;18261;53.648;9.910;2022-08-06T05:38:28;6.95;;;1.70;;
31652;SDS011;18261;53.648;9.910;2022-08-06T05:40:54;8.88;;;2.03;;
31652;SDS011;18261;53.648;9.910;2022-08-06T05:43:20;5.93;;;2.05;;
31652;SDS011;18261;53.648;9.910;2022-08-06T05:45:47;9.85;;;2.17;;
31652;SDS011;18261;53.648;9.910;2022-08-06T05:48:13;7.15;;;1.77;;
31652;SDS011;18261;53.648;9.910;2022-08-06T05:50:46;9.55;;;2.17;;
31652;SDS011;18261;53.648;9.910;2022-08-06T05:53:19;9.93;;;4.13;;
31652;SDS011;18261;53.648;9.910;2022-08-06T05:55:49;11.02;;;3.92;;
31652;SDS011;18261;53.648;9.910;2022-08-06T05:58:22;8.80;;;2.20;;
31652;SDS011;18261;53.648;9.910;2022-08-06T06:00:49;7.18;;;2.55;;
31652;SDS011;18261;53.648;9.910;2022-08-06T06:03:16;8.15;;;1.83;;
31652;SDS011;18261;53.648;9.910;2022-08-06T06:05:43;7.30;;;1.63;;
31652;SDS011;18261;53.648;9.910;2022-08-06T06:08:09;8.23;;;1.70;;
31652;SDS011;18261;53.648;9.910;2022-08-06T06:10:36;6.10;;;1.95;;
31652;SDS011;18261;53.648;9.910;2022-08-06T06:13:03;5.80;;;2.25;;
31652;SDS011;18261;53.648;9.910;2022-08-06T06:15:30;14.02;;;2.22;;
31652;SDS011;18261;53.648;9.910;2022-08-06T06:27:58;4.90;;;1.10;;
31652;SDS011;18261;53.648;9.910;2022-08-06T06:33:03;11.35;;;2.05;;
31652;SDS011;18261;53.648;9.910;2022-08-06T06:35:42;4.82;;;1.60;;
31652;SDS011;18261;53.648;9.910;2022-08-06T06:43:24;5.72;;;1.50;;
31652;SDS011;18261;53.648;9.910;2022-08-06T06:48:20;6.03;;;1.25;;
31652;SDS011;18261;53.648;9.910;2022-08-06T06:50:51;5.30;;;1.48;;
31652;SDS011;18261;53.648;9.910;2022-08-06T06:53:18;7.82;;;1.10;;
31652;SDS011;18261;53.648;9.910;2022-08-06T06:55:46;6.65;;;1.15;;
31652;SDS011;18261;53.648;9.910;2022-08-06T06:58:20;5.00;;;1.08;;
31652;SDS011;18261;53.648;9.910;2022-08-06T07:00:47;7.93;;;1.30;;
31652;SDS011;18261;53.648;9.910;2022-08-06T07:03:14;2.95;;;1.05;;
31652;SDS011;18261;53.648;9.910;2022-08-06T07:05:42;10.85;;;1.75;;
31652;SDS011;18261;53.648;9.910;2022-08-06T07:08:10;6.75;;;1.45;;
31652;SDS011;18261;53.648;9.910;2022-08-06T07:10:37;4.78;;;1.25;;
31652;SDS011;18261;53.648;9.910;2022-08-06T07:13:04;6.05;;;1.40;;
31652;SDS011;18261;53.648;9.910;2022-08-06T07:15:31;6.63;;;1.52;;
31652;SDS011;18261;53.648;9.910;2022-08-06T07:17:57;6.65;;;1.40;;
31652;SDS011;18261;53.648;9.910;2022-08-06T07:20:28;12.38;;;1.50;;
31652;SDS011;18261;53.648;9.910;2022-08-06T07:22:56;9.07;;;1.30;;
31652;SDS011;18261;53.648;9.910;2022-08-06T07:25:22;14.15;;;2.28;;
31652;SDS011;18261;53.648;9.910;2022-08-06T07:27:49;2.45;;;1.15;;
31652;SDS011;18261;53.648;9.910;2022-08-06T07:30:17;6.95;;;1.45;;
31652;SDS011;18261;53.648;9.910;2022-08-06T07:32:44;10.77;;;2.78;;
31652;SDS011;18261;53.648;9.910;2022-08-06T07:35:10;8.93;;;1.85;;
31652;SDS011;18261;53.648;9.910;2022-08-06T07:37:37;8.45;;;2.70;;
31652;SDS011;18261;53.648;9.910;2022-08-06T07:40:06;16.58;;;4.80;;
31652;SDS011;18261;53.648;9.910;2022-08-06T07:42:32;13.32;;;5.30;;
31652;SDS011;18261;53.648;9.910;2022-08-06T07:45:01;9.80;;;3.38;;
31652;SDS011;18261;53.648;9.910;2022-08-06T07:47:34;10.88;;;1.80;;
31652;SDS011;18261;53.648;9.910;2022-08-06T07:50:01;6.38;;;1.67;;
31652;SDS011;18261;53.648;9.910;2022-08-06T07:52:27;10.35;;;3.65;;
31652;SDS011;18261;53.648;9.910;2022-08-06T07:54:54;12.75;;;4.30;;
31652;SDS011;18261;53.648;9.910;2022-08-06T07:57:20;9.95;;;2.45;;
31652;SDS011;18261;53.648;9.910;2022-08-06T07:59:47;10.70;;;3.33;;
31652;SDS011;18261;53.648;9.910;2022-08-06T08:02:13;14.02;;;3.72;;
31652;SDS011;18261;53.648;9.910;2022-08-06T08:04:40;39.08;;;11.25;;
31652;SDS011;18261;53.648;9.910;2022-08-06T08:07:25;20.10;;;6.10;;
31652;SDS011;18261;53.648;9.910;2022-08-06T08:09:51;4.35;;;1.73;;
31652;SDS011;18261;53.648;9.910;2022-08-06T08:12:18;6.10;;;1.27;;
31652;SDS011;18261;53.648;9.910;2022-08-06T08:14:45;4.18;;;0.95;;
31652;SDS011;18261;53.648;9.910;2022-08-06T08:17:11;5.32;;;1.27;;
31652;SDS011;18261;53.648;9.910;2022-08-06T08:19:37;6.05;;;2.25;;
31652;SDS011;18261;53.648;9.910;2022-08-06T08:24:36;14.27;;;3.45;;
31652;SDS011;18261;53.648;9.910;2022-08-06T08:27:02;11.52;;;2.53;;
31652;SDS011;18261;53.648;9.910;2022-08-06T08:29:29;4.25;;;1.88;;
31652;SDS011;18261;53.648;9.910;2022-08-06T08:31:55;4.60;;;1.42;;
31652;SDS011;18261;53.648;9.910;2022-08-06T08:34:21;12.57;;;3.22;;
31652;SDS011;18261;53.648;9.910;2022-08-06T08:36:47;5.68;;;1.42;;
31652;SDS011;18261;53.648;9.910;2022-08-06T08:39:13;12.77;;;3.42;;
31652;SDS011;18261;53.648;9.910;2022-08-06T08:41:49;9.75;;;2.40;;
31652;SDS011;18261;53.648;9.910;2022-08-06T08:44:21;10.45;;;5.53;;
31652;SDS011;18261;53.648;9.910;2022-08-06T08:46:49;8.38;;;2.35;;
31652;SDS011;18261;53.648;9.910;2022-08-06T08:49:18;6.28;;;1.50;;
31652;SDS011;18261;53.648;9.910;2022-08-06T08:51:45;5.65;;;1.00;;
31652;SDS011;18261;53.648;9.910;2022-08-06T08:54:13;5.30;;;1.17;;
31652;SDS011;18261;53.648;9.910;2022-08-06T08:56:39;6.55;;;1.92;;
31652;SDS011;18261;53.648;9.910;2022-08-06T08:59:05;13.63;;;1.75;;
31652;SDS011;18261;53.648;9.910;2022-08-06T09:01:31;4.88;;;1.70;;
31652;SDS011;18261;53.648;9.910;2022-08-06T09:04:03;10.48;;;1.58;;
31652;SDS011;18261;53.648;9.910;2022-08-06T09:06:29;6.60;;;1.05;;
31652;SDS011;18261;53.648;9.910;2022-08-06T09:08:57;3.10;;;0.77;;
31652;SDS011;18261;53.648;9.910;2022-08-06T09:11:29;8.48;;;2.55;;
31652;SDS011;18261;53.648;9.910;2022-08-06T09:13:55;6.03;;;1.20;;
31652;SDS011;18261;53.648;9.910;2022-08-06T09:16:21;14.85;;;2.13;;
31652;SDS011;18261;53.648;9.910;2022-08-06T09:18:47;6.32;;;1.38;;
31652;SDS011;18261;53.648;9.910;2022-08-06T09:21:13;7.45;;;1.90;;
31652;SDS011;18261;53.648;9.910;2022-08-06T09:23:39;8.65;;;1.50;;
31652;SDS011;18261;53.648;9.910;2022-08-06T09:26:05;6.80;;;1.45;;
31652;SDS011;18261;53.648;9.910;2022-08-06T09:28:36;8.18;;;2.70;;
31652;SDS011;18261;53.648;9.910;2022-08-06T09:31:11;5.40;;;1.08;;
31652;SDS011;18261;53.648;9.910;2022-08-06T09:33:39;3.85;;;1.50;;
31652;SDS011;18261;53.648;9.910;2022-08-06T09:36:06;8.70;;;1.77;;
31652;SDS011;18261;53.648;9.910;2022-08-06T09:38:49;10.93;;;2.60;;
31652;SDS011;18261;53.648;9.910;2022-08-06T09:41:16;9.75;;;3.35;;
31652;SDS011;18261;53.648;9.910;2022-08-06T09:43:45;7.07;;;1.17;;
31652;SDS011;18261;53.648;9.910;2022-08-06T09:46:11;5.55;;;1.40;;
31652;SDS011;18261;53.648;9.910;2022-08-06T09:48:40;10.82;;;2.20;;
31652;SDS011;18261;53.648;9.910;2022-08-06T09:51:21;7.18;;;1.23;;
31652;SDS011;18261;53.648;9.910;2022-08-06T09:53:53;6.55;;;1.45;;
31652;SDS011;18261;53.648;9.910;2022-08-06T09:56:20;8.00;;;1.38;;
31652;SDS011;18261;53.648;9.910;2022-08-06T09:58:46;5.05;;;1.40;;
31652;SDS011;18261;53.648;9.910;2022-08-06T10:03:39;6.22;;;1.65;;
31652;SDS011;18261;53.648;9.910;2022-08-06T10:06:06;6.65;;;1.23;;
31652;SDS011;18261;53.648;9.910;2022-08-06T10:08:32;11.20;;;1.67;;
31652;SDS011;18261;53.648;9.910;2022-08-06T10:10:58;6.75;;;2.00;;
31652;SDS011;18261;53.648;9.910;2022-08-06T10:13:27;5.25;;;1.77;;
31652;SDS011;18261;53.648;9.910;2022-08-06T10:15:55;7.03;;;1.60;;
31652;SDS011;18261;53.648;9.910;2022-08-06T10:21:00;7.25;;;1.80;;
31652;SDS011;18261;53.648;9.910;2022-08-06T10:23:28;5.35;;;1.58;;
31652;SDS011;18261;53.648;9.910;2022-08-06T10:25:54;12.63;;;7.32;;
31652;SDS011;18261;53.648;9.910;2022-08-06T10:28:21;21.15;;;12.15;;
31652;SDS011;18261;53.648;9.910;2022-08-06T10:30:49;13.75;;;3.10;;
31652;SDS011;18261;53.648;9.910;2022-08-06T10:33:16;6.22;;;2.30;;
31652;SDS011;18261;53.648;9.910;2022-08-06T10:35:42;9.50;;;3.35;;
31652;SDS011;18261;53.648;9.910;2022-08-06T10:38:09;5.38;;;2.60;;
31652;SDS011;18261;53.648;9.910;2022-08-06T10:40:38;13.93;;;3.97;;
31652;SDS011;18261;53.648;9.910;2022-08-06T10:43:04;4.28;;;2.40;;
31652;SDS011;18261;53.648;9.910;2022-08-06T10:45:31;10.27;;;3.13;;
31652;SDS011;18261;53.648;9.910;2022-08-06T10:47:58;7.03;;;2.83;;
31652;SDS011;18261;53.648;9.910;2022-08-06T10:50:24;8.70;;;3.95;;
31652;SDS011;18261;53.648;9.910;2022-08-06T10:52:50;6.78;;;3.42;;
31652;SDS011;18261;53.648;9.910;2022-08-06T10:55:16;8.90;;;4.30;;
31652;SDS011;18261;53.648;9.910;2022-08-06T10:57:42;9.65;;;4.10;;
31652;SDS011;18261;53.648;9.910;2022-08-06T11:00:09;12.18;;;4.03;;
31652;SDS011;18261;53.648;9.910;2022-08-06T11:05:20;6.95;;;4.20;;
31652;SDS011;18261;53.648;9.910;2022-08-06T11:07:54;7.90;;;4.72;;
31652;SDS011;18261;53.648;9.910;2022-08-06T11:15:17;5.82;;;3.50;;
31652;SDS011;18261;53.648;9.910;2022-08-06T11:17:47;9.27;;;3.95;;
31652;SDS011;18261;53.648;9.910;2022-08-06T11:23:01;8.57;;;3.83;;
31652;SDS011;18261;53.648;9.910;2022-08-06T11:28:05;12.07;;;5.30;;
31652;SDS011;18261;53.648;9.910;2022-08-06T11:30:42;7.80;;;4.82;;
31652;SDS011;18261;53.648;9.910;2022-08-06T11:33:09;11.50;;;5.28;;
31652;SDS011;18261;53.648;9.910;2022-08-06T11:38:01;17.60;;;6.82;;
31652;SDS011;18261;53.648;9.910;2022-08-06T11:40:28;8.38;;;4.70;;
31652;SDS011;18261;53.648;9.910;2022-08-06T11:42:54;9.52;;;3.97;;
31652;SDS011;18261;53.648;9.910;2022-08-06T11:45:20;8.18;;;4.15;;
31652;SDS011;18261;53.648;9.910;2022-08-06T11:48:05;8.68;;;3.83;;
31652;SDS011;18261;53.648;9.910;2022-08-06T11:50:31;9.00;;;3.72;;
31652;SDS011;18261;53.648;9.910;2022-08-06T11:52:58;11.35;;;4.97;;
31652;SDS011;18261;53.648;9.910;2022-08-06T11:55:24;7.45;;;3.78;;
31652;SDS011;18261;53.648;9.910;2022-08-06T11:58:14;12.70;;;5.65;;
31652;SDS011;18261;53.648;9.910;2022-08-06T12:00:54;8.70;;;4.47;;
31652;SDS011;18261;53.648;9.910;2022-08-06T12:03:36;7.63;;;3.55;;
31652;SDS011;18261;53.648;9.910;2022-08-06T12:06:09;6.07;;;3.38;;
31652;SDS011;18261;53.648;9.910;2022-08-06T12:08:43;8.73;;;3.80;;
31652;SDS011;18261;53.648;9.910;2022-08-06T12:11:29;7.68;;;4.05;;
31652;SDS011;18261;53.648;9.910;2022-08-06T12:13:55;11.07;;;3.83;;
31652;SDS011;18261;53.648;9.910;2022-08-06T12:16:27;6.75;;;3.95;;
31652;SDS011;18261;53.648;9.910;2022-08-06T12:18:53;11.75;;;4.68;;
31652;SDS011;18261;53.648;9.910;2022-08-06T12:21:19;5.35;;;3.90;;
31652;SDS011;18261;53.648;9.910;2022-08-06T12:23:48;7.45;;;4.43;;
31652;SDS011;18261;53.648;9.910;2022-08-06T12:26:15;12.80;;;6.50;;
31652;SDS011;18261;53.648;9.910;2022-08-06T12:28:41;11.63;;;4.93;;
31652;SDS011;18261;53.648;9.910;2022-08-06T12:31:07;7.53;;;4.50;;
31652;SDS011;18261;53.648;9.910;2022-08-06T12:33:40;8.68;;;5.32;;
31652;SDS011;18261;53.648;9.910;2022-08-06T12:36:06;7.35;;;4.13;;
31652;SDS011;18261;53.648;9.910;2022-08-06T12:38:32;13.32;;;6.43;;
31652;SDS011;18261;53.648;9.910;2022-08-06T12:43:26;9.70;;;4.40;;
31652;SDS011;18261;53.648;9.910;2022-08-06T12:45:55;9.07;;;5.13;;
31652;SDS011;18261;53.648;9.910;2022-08-06T12:48:22;10.07;;;4.75;;
31652;SDS011;18261;53.648;9.910;2022-08-06T12:50:48;10.32;;;5.18;;
31652;SDS011;18261;53.648;9.910;2022-08-06T12:53:17;11.23;;;6.32;;
31652;SDS011;18261;53.648;9.910;2022-08-06T12:55:47;8.05;;;4.55;;
31652;SDS011;18261;53.648;9.910;2022-08-06T12:58:14;10.27;;;4.45;;
31652;SDS011;18261;53.648;9.910;2022-08-06T13:00:41;9.45;;;4.78;;
31652;SDS011;18261;53.648;9.910;2022-08-06T13:03:07;10.30;;;5.10;;
31652;SDS011;18261;53.648;9.910;2022-08-06T13:05:34;11.02;;;4.70;;
31652;SDS011;18261;53.648;9.910;2022-08-06T13:08:00;9.85;;;4.20;;
31652;SDS011;18261;53.648;9.910;2022-08-06T13:10:27;13.68;;;5.18;;
31652;SDS011;18261;53.648;9.910;2022-08-06T13:13:03;6.82;;;4.55;;
31652;SDS011;18261;53.648;9.910;2022-08-06T13:15:29;7.05;;;4.82;;
31652;SDS011;18261;53.648;9.910;2022-08-06T13:20:35;9.02;;;4.82;;
31652;SDS011;18261;53.648;9.910;2022-08-06T13:23:01;9.98;;;5.63;;
31652;SDS011;18261;53.648;9.910;2022-08-06T13:25:27;10.63;;;4.90;;
31652;SDS011;18261;53.648;9.910;2022-08-06T13:28:14;10.80;;;4.70;;
31652;SDS011;18261;53.648;9.910;2022-08-06T13:30:40;9.95;;;4.30;;
31652;SDS011;18261;53.648;9.910;2022-08-06T13:33:10;6.07;;;4.53;;
31652;SDS011;18261;53.648;9.910;2022-08-06T13:35:37;9.27;;;5.13;;
31652;SDS011;18261;53.648;9.910;2022-08-06T13:38:03;9.00;;;5.40;;
31652;SDS011;18261;53.648;9.910;2022-08-06T13:40:42;6.40;;;4.38;;
31652;SDS011;18261;53.648;9.910;2022-08-06T13:43:08;9.88;;;5.65;;
31652;SDS011;18261;53.648;9.910;2022-08-06T13:45:35;7.53;;;5.07;;
31652;SDS011;18261;53.648;9.910;2022-08-06T13:48:02;6.95;;;4.70;;
31652;SDS011;18261;53.648;9.910;2022-08-06T13:50:28;12.75;;;5.03;;
31652;SDS011;18261;53.648;9.910;2022-08-06T13:52:54;11.48;;;6.63;;
31652;SDS011;18261;53.648;9.910;2022-08-06T13:55:24;12.60;;;6.00;;
31652;SDS011;18261;53.648;9.910;2022-08-06T13:57:50;11.63;;;6.43;;
31652;SDS011;18261;53.648;9.910;2022-08-06T14:00:16;9.80;;;4.75;;
31652;SDS011;18261;53.648;9.910;2022-08-06T14:02:42;11.38;;;5.60;;
31652;SDS011;18261;53.648;9.910;2022-08-06T14:05:09;8.30;;;4.88;;
31652;SDS011;18261;53.648;9.910;2022-08-06T14:07:34;9.77;;;5.80;;
31652;SDS011;18261;53.648;9.910;2022-08-06T14:10:00;8.70;;;5.57;;
31652;SDS011;18261;53.648;9.910;2022-08-06T14:12:26;9.88;;;5.63;;
31652;SDS011;18261;53.648;9.910;2022-08-06T14:14:52;10.30;;;6.45;;
31652;SDS011;18261;53.648;9.910;2022-08-06T14:17:19;8.23;;;5.30;;
31652;SDS011;18261;53.648;9.910;2022-08-06T14:19:45;8.40;;;5.03;;
31652;SDS011;18261;53.648;9.910;2022-08-06T14:22:11;8.68;;;5.53;;
31652;SDS011;18261;53.648;9.910;2022-08-06T14:24:37;10.98;;;5.80;;
31652;SDS011;18261;53.648;9.910;2022-08-06T14:27:04;11.40;;;5.75;;
31652;SDS011;18261;53.648;9.910;2022-08-06T14:29:30;13.52;;;6.07;;
31652;SDS011;18261;53.648;9.910;2022-08-06T14:31:56;11.00;;;5.63;;
31652;SDS011;18261;53.648;9.910;2022-08-06T14:34:22;11.38;;;6.13;;
31652;SDS011;18261;53.648;9.910;2022-08-06T14:36:48;14.57;;;7.32;;
31652;SDS011;18261;53.648;9.910;2022-08-06T14:39:14;12.10;;;6.38;;
31652;SDS011;18261;53.648;9.910;2022-08-06T14:41:40;12.70;;;6.53;;
31652;SDS011;18261;53.648;9.910;2022-08-06T14:44:25;10.02;;;5.45;;
31652;SDS011;18261;53.648;9.910;2022-08-06T14:47:09;13.55;;;6.65;;
31652;SDS011;18261;53.648;9.910;2022-08-06T14:49:35;11.18;;;5.90;;
31652;SDS011;18261;53.648;9.910;2022-08-06T14:52:02;7.22;;;5.85;;
31652;SDS011;18261;53.648;9.910;2022-08-06T14:54:28;10.25;;;5.50;;
31652;SDS011;18261;53.648;9.910;2022-08-06T14:56:54;19.70;;;7.57;;
31652;SDS011;18261;53.648;9.910;2022-08-06T14:59:20;12.00;;;7.20;;
31652;SDS011;18261;53.648;9.910;2022-08-06T15:01:46;11.75;;;5.68;;
31652;SDS011;18261;53.648;9.910;2022-08-06T15:04:12;6.72;;;4.78;;
31652;SDS011;18261;53.648;9.910;2022-08-06T15:06:39;6.65;;;4.43;;
31652;SDS011;18261;53.648;9.910;2022-08-06T15:09:05;10.52;;;5.15;;
31652;SDS011;18261;53.648;9.910;2022-08-06T15:11:31;11.20;;;5.00;;
31652;SDS011;18261;53.648;9.910;2022-08-06T15:13:58;6.07;;;4.97;;
31652;SDS011;18261;53.648;9.910;2022-08-06T15:16:24;10.50;;;5.53;;
31652;SDS011;18261;53.648;9.910;2022-08-06T15:18:50;7.13;;;4.88;;
31652;SDS011;18261;53.648;9.910;2022-08-06T15:21:16;10.45;;;5.90;;
31652;SDS011;18261;53.648;9.910;2022-08-06T15:23:44;9.68;;;5.30;;
31652;SDS011;18261;53.648;9.910;2022-08-06T15:26:10;8.48;;;5.50;;
31652;SDS011;18261;53.648;9.910;2022-08-06T15:28:36;9.93;;;5.45;;
31652;SDS011;18261;53.648;9.910;2022-08-06T15:31:02;12.80;;;6.55;;
31652;SDS011;18261;53.648;9.910;2022-08-06T15:33:29;10.00;;;5.60;;
31652;SDS011;18261;53.648;9.910;2022-08-06T15:35:55;11.52;;;5.72;;
31652;SDS011;18261;53.648;9.910;2022-08-06T15:38:21;17.25;;;7.38;;
31652;SDS011;18261;53.648;9.910;2022-08-06T15:40:47;9.55;;;5.03;;
31652;SDS011;18261;53.648;9.910;2022-08-06T15:43:14;11.18;;;5.80;;